createdAt,value
2023-01-31T00:05:22.556Z,98055.28
2023-01-31T00:10:44.421Z,98060.03
2023-01-31T00:16:07.356Z,98054.19
2023-01-31T00:21:31.461Z,98069.03
2023-01-31T00:26:59.297Z,98069.03
2023-01-31T00:32:21.463Z,98055.75
2023-01-31T00:37:45.684Z,98048.31
2023-01-31T00:43:08.785Z,98053.59
2023-01-31T00:48:31.122Z,98075.31
2023-01-31T00:53:53.253Z,98058.09
2023-01-31T00:59:15.249Z,98074.22
2023-01-31T01:04:37.420Z,98039.25
2023-01-31T01:09:59.413Z,98060.41
2023-01-31T01:15:22.229Z,98087.94
2023-01-31T01:20:44.608Z,98081.31
2023-01-31T01:26:07.523Z,98079.16
2023-01-31T01:31:33.392Z,98082.59
2023-01-31T01:36:55.671Z,98086.25
2023-01-31T01:42:19.923Z,98094.22
2023-01-31T01:47:50.775Z,98092.88
2023-01-31T01:53:21.131Z,98078.03
2023-01-31T01:58:53.007Z,98074.63
2023-01-31T02:04:21.916Z,98082.31
2023-01-31T02:09:57.092Z,98086.75
2023-01-31T02:15:22.488Z,98075.63
2023-01-31T02:21:15.264Z,98096.31
2023-01-31T02:26:59.285Z,98098.66
2023-01-31T02:32:48.105Z,98087.53
2023-01-31T02:38:25.501Z,98102.38
2023-01-31T02:44:26.185Z,98106.88
2023-01-31T02:49:52.044Z,98081.97
2023-01-31T02:56:02.343Z,98096.56
2023-01-31T03:01:30.662Z,98107.13
2023-01-31T03:07:02.813Z,98100.50
2023-01-31T03:12:31.199Z,98105.78
2023-01-31T03:18:16.180Z,98073.44
2023-01-31T03:23:41.961Z,98072.66
2023-01-31T03:29:07.345Z,98104.16
2023-01-31T03:34:31.951Z,98110.50
2023-01-31T03:40:04.734Z,98111.03
2023-01-31T03:45:47.596Z,98116.31
2023-01-31T03:51:16.136Z,98094.06
2023-01-31T03:56:46.613Z,98113.94
2023-01-31T04:02:13.850Z,98103.88
2023-01-31T04:07:37.560Z,98120.00
2023-01-31T04:12:58.661Z,98095.63
2023-01-31T04:18:20.884Z,98098.81
2023-01-31T04:23:42.805Z,98112.59
2023-01-31T04:29:05.938Z,98108.59
2023-01-31T04:34:28.530Z,98110.72
2023-01-31T04:39:50.722Z,98122.13
2023-01-31T04:45:12.886Z,98131.91
2023-01-31T04:50:35.758Z,98141.91
2023-01-31T04:55:58.086Z,98133.19
2023-01-31T05:01:20.513Z,98132.34
2023-01-31T05:06:42.955Z,98163.63
2023-01-31T05:12:06.364Z,98139.53
2023-01-31T05:17:31.572Z,98153.78
2023-01-31T05:22:56.776Z,98127.78
2023-01-31T05:28:19.283Z,98190.59
2023-01-31T05:33:41.861Z,98166.72
2023-01-31T05:39:04.280Z,98140.97
2023-01-31T05:44:32.172Z,98191.31
2023-01-31T05:49:54.186Z,98134.63
2023-01-31T05:55:18.329Z,98161.09
2023-01-31T06:00:41.034Z,98181.25
2023-01-31T06:06:04.546Z,98173.00
2023-01-31T06:11:26.997Z,98209.31
2023-01-31T06:16:48.945Z,98211.44
2023-01-31T06:22:11.157Z,98212.50
2023-01-31T06:27:34.228Z,98214.06
2023-01-31T06:33:00.800Z,98229.47
2023-01-31T06:38:22.789Z,98230.53
2023-01-31T06:43:44.765Z,98229.69
2023-01-31T06:49:06.899Z,98224.97
2023-01-31T06:54:28.933Z,98231.88
2023-01-31T06:59:50.796Z,98244.31
2023-01-31T07:05:13.350Z,98244.31
2023-01-31T07:10:35.303Z,98244.81
2023-01-31T07:16:00.311Z,98226.22
2023-01-31T07:21:26.145Z,98216.19
2023-01-31T07:26:52.806Z,98269.78
2023-01-31T07:32:18.012Z,98258.44
2023-01-31T07:37:40.304Z,98260.28
2023-01-31T07:43:02.882Z,98234.25
2023-01-31T07:48:27.860Z,98220.19
2023-01-31T07:53:49.791Z,98235.84
2023-01-31T07:59:13.247Z,98239.53
2023-01-31T08:04:36.019Z,98238.75
2023-01-31T08:09:57.857Z,98294.47
2023-01-31T08:15:19.999Z,98292.28
2023-01-31T08:20:42.024Z,98312.69
2023-01-31T08:26:13.037Z,98308.22
2023-01-31T08:31:35.033Z,98310.59
2023-01-31T08:36:57.120Z,98309.03
2023-01-31T08:42:19.160Z,98304.25
2023-01-31T08:47:41.229Z,98303.75
2023-01-31T08:53:05.053Z,98305.44
2023-01-31T08:58:26.885Z,98306.97
2023-01-31T09:03:51.060Z,98320.00
2023-01-31T09:09:33.932Z,98312.34
2023-01-31T09:14:56.568Z,98336.44
2023-01-31T09:20:20.907Z,98328.78
2023-01-31T09:25:47.436Z,98301.25
2023-01-31T09:31:13.129Z,98264.09
2023-01-31T09:36:35.287Z,98291.13
2023-01-31T09:42:07.117Z,98291.81
2023-01-31T09:47:38.683Z,98320.72
2023-01-31T09:53:01.418Z,98306.91
2023-01-31T09:58:32.083Z,98350.38
2023-01-31T10:04:15.298Z,98307.97
2023-01-31T10:15:47.224Z,98320.44
2023-01-31T10:21:32.632Z,98305.16
2023-01-31T10:27:01.180Z,98316.81
2023-01-31T10:32:49.177Z,98320.78
2023-01-31T10:38:23.247Z,98343.63
2023-01-31T10:44:01.044Z,98341.50
2023-01-31T10:49:29.847Z,98330.41
2023-01-31T10:55:12.041Z,98341.25
2023-01-31T11:00:35.029Z,98333.56
2023-01-31T11:05:59.244Z,98327.72
2023-01-31T11:11:23.546Z,98330.13
2023-01-31T11:16:46.988Z,98354.75
2023-01-31T11:22:17.949Z,98350.50
2023-01-31T11:27:44.594Z,98362.41
2023-01-31T11:33:06.344Z,98355.56
2023-01-31T11:38:29.340Z,98359.75
2023-01-31T11:44:24.610Z,98337.44
2023-01-31T11:49:51.026Z,98352.84
2023-01-31T11:55:18.343Z,98346.72
2023-01-31T12:00:53.308Z,98347.72
2023-01-31T12:06:34.694Z,98341.91
2023-01-31T12:11:59.982Z,98371.34
2023-01-31T12:17:22.406Z,98389.09
2023-01-31T12:23:03.788Z,98385.41
2023-01-31T12:29:01.124Z,98384.06
2023-01-31T12:34:28.902Z,98397.59
2023-01-31T12:40:25.654Z,98379.56
2023-01-31T12:46:07.599Z,98383.28
2023-01-31T12:52:00.136Z,98403.44
2023-01-31T12:57:51.159Z,98381.94
2023-01-31T13:03:39.052Z,98406.34
2023-01-31T13:09:09.880Z,98405.72
2023-01-31T13:14:37.245Z,98412.13
2023-01-31T13:20:30.371Z,98418.22
2023-01-31T13:25:57.757Z,98402.56
2023-01-31T13:31:29.699Z,98423.44
2023-01-31T13:37:10.351Z,98421.56
2023-01-31T13:42:33.687Z,98444.06
2023-01-31T13:48:22.299Z,98422.38
2023-01-31T13:53:52.945Z,98448.03
2023-01-31T13:59:22.617Z,98454.66
2023-01-31T14:04:47.634Z,98471.03
2023-01-31T14:10:12.722Z,98462.88
2023-01-31T14:15:51.073Z,98465.16
2023-01-31T14:21:33.524Z,98479.53
2023-01-31T14:26:55.798Z,98467.81
2023-01-31T14:32:32.039Z,98480.03
2023-01-31T14:38:18.912Z,98498.03
2023-01-31T14:44:02.236Z,98480.28
2023-01-31T14:49:39.489Z,98484.31
2023-01-31T14:55:13.883Z,98491.19
2023-01-31T15:00:39.415Z,98453.75
2023-01-31T15:06:18.428Z,98461.44
2023-01-31T15:12:26.621Z,98474.09
2023-01-31T15:17:54.040Z,98504.16
2023-01-31T15:23:26.580Z,98517.91
2023-01-31T15:28:51.238Z,98486.38
2023-01-31T15:34:32.518Z,98483.69
2023-01-31T15:40:16.710Z,98487.66
2023-01-31T15:45:41.219Z,98522.91
2023-01-31T15:51:03.900Z,98535.13
2023-01-31T15:56:27.964Z,98533.75
2023-01-31T16:02:00.417Z,98515.97
2023-01-31T16:07:31.985Z,98519.78
2023-01-31T16:13:09.975Z,98496.94
2023-01-31T16:18:39.356Z,98539.84
2023-01-31T16:24:23.243Z,98570.06
2023-01-31T16:29:54.486Z,98559.00
2023-01-31T16:35:33.763Z,98585.19
2023-01-31T16:40:59.836Z,98537.63
2023-01-31T16:46:44.931Z,98564.16
2023-01-31T16:52:18.317Z,98569.22
2023-01-31T16:57:42.762Z,98586.72
2023-01-31T17:03:18.994Z,98575.78
2023-01-31T17:08:46.754Z,98595.47
2023-01-31T17:14:09.506Z,98577.94
2023-01-31T17:19:33.506Z,98578.72
2023-01-31T17:24:55.955Z,98595.16
2023-01-31T17:30:24.434Z,98590.59
2023-01-31T17:35:52.463Z,98584.28
2023-01-31T17:41:19.912Z,98614.06
2023-01-31T17:46:43.607Z,98606.53
2023-01-31T17:52:06.002Z,98618.06
2023-01-31T17:57:28.674Z,98598.38
2023-01-31T18:02:52.556Z,98599.38
2023-01-31T18:08:15.778Z,98634.16
2023-01-31T18:13:40.274Z,98605.97
2023-01-31T18:19:02.710Z,98624.06
2023-01-31T18:24:24.637Z,98642.66
2023-01-31T18:29:46.468Z,98621.34
2023-01-31T18:35:09.697Z,98634.44
2023-01-31T18:40:31.945Z,98645.25
2023-01-31T18:45:54.326Z,98637.00
2023-01-31T18:51:17.220Z,98625.59
2023-01-31T18:56:39.414Z,98643.72
2023-01-31T19:02:04.403Z,98644.72
2023-01-31T19:07:26.620Z,98627.47
2023-01-31T19:12:49.235Z,98625.84
2023-01-31T19:18:11.345Z,98633.53
2023-01-31T19:23:29.234Z,98641.50
2023-01-31T19:28:51.426Z,98637.50
2023-01-31T19:34:13.624Z,98653.50
2023-01-31T19:39:35.328Z,98653.25
2023-01-31T19:44:57.093Z,98663.06
2023-01-31T19:50:19.928Z,98637.78
2023-01-31T19:55:42.107Z,98664.88
2023-01-31T20:01:07.487Z,98669.41
2023-01-31T20:06:34.726Z,98667.81
2023-01-31T20:11:57.017Z,98665.41
2023-01-31T20:17:19.263Z,98675.78
2023-01-31T20:22:41.565Z,98674.97
2023-01-31T20:28:03.733Z,98653.56
2023-01-31T20:33:25.801Z,98659.44
2023-01-31T20:38:47.707Z,98671.34
2023-01-31T20:44:09.592Z,98668.44
2023-01-31T20:49:31.834Z,98694.50
2023-01-31T20:54:54.148Z,98669.78
2023-01-31T21:00:20.807Z,98684.91
2023-01-31T21:05:42.893Z,98682.81
2023-01-31T21:11:10.444Z,98686.84
2023-01-31T21:16:33.116Z,98698.28
2023-01-31T21:21:55.238Z,98702.50
2023-01-31T21:27:18.175Z,98688.69
2023-01-31T21:32:40.177Z,98659.44
2023-01-31T21:38:04.344Z,98681.78
2023-01-31T21:43:26.585Z,98670.88
2023-01-31T21:48:49.304Z,98676.69
2023-01-31T21:54:11.263Z,98704.16
2023-01-31T21:59:33.410Z,98671.84
2023-01-31T22:04:55.605Z,98721.03
2023-01-31T22:10:17.884Z,98714.69
2023-01-31T22:15:40.326Z,98715.47
2023-01-31T22:21:03.906Z,98728.28
2023-01-31T22:26:28.681Z,98734.38
2023-01-31T22:31:51.192Z,98712.50
2023-01-31T22:37:15.664Z,98727.41
2023-01-31T22:42:37.497Z,98731.97
2023-01-31T22:47:59.954Z,98731.97
2023-01-31T22:53:21.802Z,98708.00
2023-01-31T22:58:44.267Z,98724.66
2023-01-31T23:04:08.878Z,98711.94
2023-01-31T23:09:33.473Z,98743.28
2023-01-31T23:14:55.607Z,98747.53
2023-01-31T23:20:20.639Z,98708.13
2023-01-31T23:25:43.134Z,98712.38
2023-01-31T23:31:10.469Z,98735.31
2023-01-31T23:36:34.897Z,98750.81
2023-01-31T23:41:57.344Z,98699.88
2023-01-31T23:47:20.233Z,98726.88
2023-01-31T23:52:44.764Z,98746.00
2023-01-31T23:58:09.856Z,98704.97
